sensor_id;sensor_type;location;lat;lon;timestamp;P1;durP1;ratioP1;P2;durP2;ratioP2
44456;SDS011;30159;49.316;8.558;2023-05-10T00:00:45;0.70;;;0.50;;
44456;SDS011;30159;49.316;8.558;2023-05-10T00:03:12;0.70;;;0.60;;
44456;SDS011;30159;49.316;8.558;2023-05-10T00:05:39;0.93;;;0.70;;
44456;SDS011;30159;49.316;8.558;2023-05-10T00:08:05;0.90;;;0.70;;
44456;SDS011;30159;49.316;8.558;2023-05-10T00:10:32;0.90;;;0.70;;
44456;SDS011;30159;49.316;8.558;2023-05-10T00:12:59;0.80;;;0.60;;
44456;SDS011;30159;49.316;8.558;2023-05-10T00:15:25;0.80;;;0.70;;
44456;SDS011;30159;49.316;8.558;2023-05-10T00:17:53;1.17;;;0.70;;
44456;SDS011;30159;49.316;8.558;2023-05-10T00:20:20;0.60;;;0.60;;
44456;SDS011;30159;49.316;8.558;2023-05-10T00:22:46;0.90;;;0.77;;
44456;SDS011;30159;49.316;8.558;2023-05-10T00:25:13;0.80;;;0.60;;
44456;SDS011;30159;49.316;8.558;2023-05-10T00:27:39;3.80;;;0.77;;
44456;SDS011;30159;49.316;8.558;2023-05-10T00:30:06;0.70;;;0.60;;
44456;SDS011;30159;49.316;8.558;2023-05-10T00:32:33;2.80;;;0.70;;
44456;SDS011;30159;49.316;8.558;2023-05-10T00:35:01;0.70;;;0.63;;
44456;SDS011;30159;49.316;8.558;2023-05-10T00:37:28;1.17;;;0.70;;
44456;SDS011;30159;49.316;8.558;2023-05-10T00:39:54;0.90;;;0.77;;
44456;SDS011;30159;49.316;8.558;2023-05-10T00:42:21;0.80;;;0.70;;
44456;SDS011;30159;49.316;8.558;2023-05-10T00:44:48;3.37;;;0.83;;
44456;SDS011;30159;49.316;8.558;2023-05-10T00:47:15;1.00;;;0.80;;
44456;SDS011;30159;49.316;8.558;2023-05-10T00:49:41;0.80;;;0.80;;
44456;SDS011;30159;49.316;8.558;2023-05-10T00:52:10;0.80;;;0.80;;
44456;SDS011;30159;49.316;8.558;2023-05-10T00:54:37;1.97;;;0.90;;
44456;SDS011;30159;49.316;8.558;2023-05-10T00:57:03;0.80;;;0.80;;
44456;SDS011;30159;49.316;8.558;2023-05-10T00:59:30;0.80;;;0.70;;
44456;SDS011;30159;49.316;8.558;2023-05-10T01:01:57;2.60;;;0.80;;
44456;SDS011;30159;49.316;8.558;2023-05-10T01:04:24;0.80;;;0.80;;
44456;SDS011;30159;49.316;8.558;2023-05-10T01:06:51;1.67;;;1.00;;
44456;SDS011;30159;49.316;8.558;2023-05-10T01:09:20;1.27;;;1.17;;
44456;SDS011;30159;49.316;8.558;2023-05-10T01:11:47;1.07;;;0.97;;
44456;SDS011;30159;49.316;8.558;2023-05-10T01:14:14;1.20;;;1.10;;
44456;SDS011;30159;49.316;8.558;2023-05-10T01:16:43;2.90;;;1.10;;
44456;SDS011;30159;49.316;8.558;2023-05-10T01:19:12;1.07;;;0.97;;
44456;SDS011;30159;49.316;8.558;2023-05-10T01:21:48;1.10;;;1.00;;
44456;SDS011;30159;49.316;8.558;2023-05-10T01:24:30;1.10;;;1.00;;
44456;SDS011;30159;49.316;8.558;2023-05-10T01:27:18;1.00;;;0.87;;
44456;SDS011;30159;49.316;8.558;2023-05-10T01:32:57;1.67;;;0.87;;
44456;SDS011;30159;49.316;8.558;2023-05-10T01:35:30;2.20;;;1.00;;
44456;SDS011;30159;49.316;8.558;2023-05-10T01:38:03;1.27;;;0.97;;
44456;SDS011;30159;49.316;8.558;2023-05-10T01:40:35;0.97;;;0.80;;
44456;SDS011;30159;49.316;8.558;2023-05-10T01:43:08;0.90;;;0.80;;
44456;SDS011;30159;49.316;8.558;2023-05-10T01:45:45;1.73;;;0.90;;
44456;SDS011;30159;49.316;8.558;2023-05-10T01:48:18;1.70;;;0.70;;
44456;SDS011;30159;49.316;8.558;2023-05-10T01:50:46;3.53;;;0.93;;
44456;SDS011;30159;49.316;8.558;2023-05-10T01:53:14;1.00;;;0.77;;
44456;SDS011;30159;49.316;8.558;2023-05-10T01:55:46;2.70;;;0.80;;
44456;SDS011;30159;49.316;8.558;2023-05-10T01:58:14;1.00;;;0.90;;
44456;SDS011;30159;49.316;8.558;2023-05-10T02:00:45;0.87;;;0.80;;
44456;SDS011;30159;49.316;8.558;2023-05-10T02:03:13;1.00;;;0.90;;
44456;SDS011;30159;49.316;8.558;2023-05-10T02:05:43;1.10;;;0.80;;
44456;SDS011;30159;49.316;8.558;2023-05-10T02:08:12;3.73;;;1.00;;
44456;SDS011;30159;49.316;8.558;2023-05-10T02:10:42;0.80;;;0.70;;
44456;SDS011;30159;49.316;8.558;2023-05-10T02:13:10;1.17;;;0.70;;
44456;SDS011;30159;49.316;8.558;2023-05-10T02:15:37;2.20;;;0.80;;
44456;SDS011;30159;49.316;8.558;2023-05-10T02:18:06;1.10;;;1.00;;
44456;SDS011;30159;49.316;8.558;2023-05-10T02:20:35;1.13;;;1.03;;
44456;SDS011;30159;49.316;8.558;2023-05-10T02:23:04;1.07;;;0.97;;
44456;SDS011;30159;49.316;8.558;2023-05-10T02:25:32;1.10;;;1.00;;
44456;SDS011;30159;49.316;8.558;2023-05-10T02:28:00;1.20;;;1.03;;
44456;SDS011;30159;49.316;8.558;2023-05-10T02:30:29;1.17;;;1.07;;
44456;SDS011;30159;49.316;8.558;2023-05-10T02:32:58;1.50;;;1.40;;
44456;SDS011;30159;49.316;8.558;2023-05-10T02:35:25;1.47;;;1.37;;
44456;SDS011;30159;49.316;8.558;2023-05-10T02:37:53;1.80;;;1.70;;
44456;SDS011;30159;49.316;8.558;2023-05-10T02:40:22;1.53;;;1.43;;
44456;SDS011;30159;49.316;8.558;2023-05-10T02:42:50;3.83;;;1.53;;
44456;SDS011;30159;49.316;8.558;2023-05-10T02:45:22;2.90;;;1.70;;
44456;SDS011;30159;49.316;8.558;2023-05-10T02:47:51;2.30;;;1.27;;
44456;SDS011;30159;49.316;8.558;2023-05-10T02:50:18;1.40;;;1.30;;
44456;SDS011;30159;49.316;8.558;2023-05-10T02:52:46;1.50;;;1.40;;
44456;SDS011;30159;49.316;8.558;2023-05-10T02:55:16;2.40;;;1.60;;
44456;SDS011;30159;49.316;8.558;2023-05-10T02:57:51;1.20;;;1.10;;
44456;SDS011;30159;49.316;8.558;2023-05-10T03:00:20;3.07;;;1.50;;
44456;SDS011;30159;49.316;8.558;2023-05-10T03:02:47;1.70;;;1.60;;
44456;SDS011;30159;49.316;8.558;2023-05-10T03:05:13;2.90;;;1.57;;
44456;SDS011;30159;49.316;8.558;2023-05-10T03:07:40;2.00;;;1.50;;
44456;SDS011;30159;49.316;8.558;2023-05-10T03:10:07;1.47;;;1.37;;
44456;SDS011;30159;49.316;8.558;2023-05-10T03:12:39;1.40;;;1.30;;
44456;SDS011;30159;49.316;8.558;2023-05-10T03:15:17;2.17;;;1.77;;
44456;SDS011;30159;49.316;8.558;2023-05-10T03:17:51;7.27;;;1.40;;
44456;SDS011;30159;49.316;8.558;2023-05-10T03:20:22;1.50;;;1.40;;
44456;SDS011;30159;49.316;8.558;2023-05-10T03:22:53;3.37;;;1.47;;
44456;SDS011;30159;49.316;8.558;2023-05-10T03:25:26;1.60;;;1.50;;
44456;SDS011;30159;49.316;8.558;2023-05-10T03:27:54;2.27;;;1.60;;
44456;SDS011;30159;49.316;8.558;2023-05-10T03:30:24;1.73;;;1.63;;
44456;SDS011;30159;49.316;8.558;2023-05-10T03:32:51;2.20;;;2.00;;
44456;SDS011;30159;49.316;8.558;2023-05-10T03:35:18;2.10;;;1.90;;
44456;SDS011;30159;49.316;8.558;2023-05-10T03:37:44;6.33;;;2.20;;
44456;SDS011;30159;49.316;8.558;2023-05-10T03:40:11;2.10;;;1.80;;
44456;SDS011;30159;49.316;8.558;2023-05-10T03:42:38;2.30;;;1.93;;
44456;SDS011;30159;49.316;8.558;2023-05-10T03:45:05;2.40;;;2.20;;
44456;SDS011;30159;49.316;8.558;2023-05-10T03:47:34;2.73;;;2.50;;
44456;SDS011;30159;49.316;8.558;2023-05-10T03:50:00;3.40;;;1.90;;
44456;SDS011;30159;49.316;8.558;2023-05-10T03:52:28;2.00;;;1.80;;
44456;SDS011;30159;49.316;8.558;2023-05-10T03:54:54;2.00;;;1.80;;
44456;SDS011;30159;49.316;8.558;2023-05-10T03:57:21;2.07;;;1.90;;
44456;SDS011;30159;49.316;8.558;2023-05-10T03:59:47;5.17;;;2.17;;
44456;SDS011;30159;49.316;8.558;2023-05-10T04:02:14;2.43;;;2.23;;
44456;SDS011;30159;49.316;8.558;2023-05-10T04:04:41;2.50;;;2.30;;
44456;SDS011;30159;49.316;8.558;2023-05-10T04:07:08;3.00;;;2.80;;
44456;SDS011;30159;49.316;8.558;2023-05-10T04:09:35;3.17;;;2.63;;
44456;SDS011;30159;49.316;8.558;2023-05-10T04:12:02;2.90;;;2.70;;
44456;SDS011;30159;49.316;8.558;2023-05-10T04:14:28;2.80;;;2.60;;
44456;SDS011;30159;49.316;8.558;2023-05-10T04:16:55;3.63;;;2.17;;
44456;SDS011;30159;49.316;8.558;2023-05-10T04:19:21;2.90;;;2.10;;
44456;SDS011;30159;49.316;8.558;2023-05-10T04:21:50;2.17;;;2.00;;
44456;SDS011;30159;49.316;8.558;2023-05-10T04:24:16;2.80;;;2.60;;
44456;SDS011;30159;49.316;8.558;2023-05-10T04:26:43;3.87;;;3.33;;
44456;SDS011;30159;49.316;8.558;2023-05-10T04:29:10;2.90;;;2.70;;
44456;SDS011;30159;49.316;8.558;2023-05-10T04:31:37;2.27;;;2.07;;
44456;SDS011;30159;49.316;8.558;2023-05-10T04:34:03;2.57;;;2.37;;
44456;SDS011;30159;49.316;8.558;2023-05-10T04:36:30;3.00;;;2.80;;
44456;SDS011;30159;49.316;8.558;2023-05-10T04:38:58;2.60;;;2.40;;
44456;SDS011;30159;49.316;8.558;2023-05-10T04:41:25;2.70;;;2.50;;
44456;SDS011;30159;49.316;8.558;2023-05-10T04:43:52;2.70;;;2.50;;
44456;SDS011;30159;49.316;8.558;2023-05-10T04:46:18;2.43;;;2.23;;
44456;SDS011;30159;49.316;8.558;2023-05-10T04:48:45;3.07;;;2.77;;
44456;SDS011;30159;49.316;8.558;2023-05-10T04:51:11;3.53;;;3.00;;
44456;SDS011;30159;49.316;8.558;2023-05-10T04:53:38;2.90;;;2.70;;
44456;SDS011;30159;49.316;8.558;2023-05-10T04:56:06;3.17;;;2.97;;
44456;SDS011;30159;49.316;8.558;2023-05-10T04:58:33;3.50;;;3.20;;
44456;SDS011;30159;49.316;8.558;2023-05-10T05:01:04;2.43;;;2.23;;
44456;SDS011;30159;49.316;8.558;2023-05-10T05:03:32;4.57;;;3.20;;
44456;SDS011;30159;49.316;8.558;2023-05-10T05:05:58;2.80;;;2.60;;
44456;SDS011;30159;49.316;8.558;2023-05-10T05:08:25;3.60;;;3.40;;
44456;SDS011;30159;49.316;8.558;2023-05-10T05:10:52;2.80;;;2.60;;
44456;SDS011;30159;49.316;8.558;2023-05-10T05:13:19;3.30;;;3.00;;
44456;SDS011;30159;49.316;8.558;2023-05-10T05:15:46;3.47;;;3.17;;
44456;SDS011;30159;49.316;8.558;2023-05-10T05:18:12;3.10;;;2.90;;
44456;SDS011;30159;49.316;8.558;2023-05-10T05:20:39;3.33;;;3.13;;
44456;SDS011;30159;49.316;8.558;2023-05-10T05:23:05;3.20;;;3.00;;
44456;SDS011;30159;49.316;8.558;2023-05-10T05:25:32;3.13;;;2.93;;
44456;SDS011;30159;49.316;8.558;2023-05-10T05:27:59;3.10;;;2.90;;
44456;SDS011;30159;49.316;8.558;2023-05-10T05:30:26;3.73;;;3.40;;
44456;SDS011;30159;49.316;8.558;2023-05-10T05:32:53;3.17;;;2.87;;
44456;SDS011;30159;49.316;8.558;2023-05-10T05:35:19;3.93;;;3.07;;
44456;SDS011;30159;49.316;8.558;2023-05-10T05:37:46;3.53;;;3.33;;
44456;SDS011;30159;49.316;8.558;2023-05-10T05:40:12;3.10;;;2.90;;
44456;SDS011;30159;49.316;8.558;2023-05-10T05:42:39;3.30;;;3.10;;
44456;SDS011;30159;49.316;8.558;2023-05-10T05:45:06;3.50;;;3.30;;
44456;SDS011;30159;49.316;8.558;2023-05-10T05:47:35;4.33;;;3.67;;
44456;SDS011;30159;49.316;8.558;2023-05-10T05:50:01;3.80;;;3.60;;
44456;SDS011;30159;49.316;8.558;2023-05-10T05:52:28;3.50;;;3.20;;
44456;SDS011;30159;49.316;8.558;2023-05-10T05:54:55;5.00;;;3.17;;
44456;SDS011;30159;49.316;8.558;2023-05-10T05:57:21;3.93;;;2.83;;
44456;SDS011;30159;49.316;8.558;2023-05-10T05:59:48;2.93;;;2.73;;
44456;SDS011;30159;49.316;8.558;2023-05-10T06:02:14;3.07;;;2.77;;
44456;SDS011;30159;49.316;8.558;2023-05-10T06:04:42;3.17;;;2.87;;
44456;SDS011;30159;49.316;8.558;2023-05-10T06:07:09;3.77;;;3.57;;
44456;SDS011;30159;49.316;8.558;2023-05-10T06:09:36;3.30;;;2.63;;
44456;SDS011;30159;49.316;8.558;2023-05-10T06:12:02;4.43;;;3.30;;
44456;SDS011;30159;49.316;8.558;2023-05-10T06:14:30;3.87;;;3.67;;
44456;SDS011;30159;49.316;8.558;2023-05-10T06:16:56;2.77;;;2.57;;
44456;SDS011;30159;49.316;8.558;2023-05-10T06:19:24;3.40;;;3.20;;
44456;SDS011;30159;49.316;8.558;2023-05-10T06:21:52;3.40;;;3.20;;
44456;SDS011;30159;49.316;8.558;2023-05-10T06:24:19;3.40;;;3.20;;
44456;SDS011;30159;49.316;8.558;2023-05-10T06:26:46;3.60;;;3.30;;
44456;SDS011;30159;49.316;8.558;2023-05-10T06:29:14;3.13;;;2.80;;
44456;SDS011;30159;49.316;8.558;2023-05-10T06:31:41;4.10;;;2.80;;
44456;SDS011;30159;49.316;8.558;2023-05-10T06:34:07;2.77;;;2.63;;
44456;SDS011;30159;49.316;8.558;2023-05-10T06:36:34;3.90;;;3.30;;
44456;SDS011;30159;49.316;8.558;2023-05-10T06:39:02;2.50;;;2.40;;
44456;SDS011;30159;49.316;8.558;2023-05-10T06:41:28;2.97;;;2.77;;
44456;SDS011;30159;49.316;8.558;2023-05-10T06:43:55;2.90;;;2.70;;
44456;SDS011;30159;49.316;8.558;2023-05-10T06:46:21;3.00;;;2.80;;
44456;SDS011;30159;49.316;8.558;2023-05-10T06:48:48;2.90;;;2.70;;
44456;SDS011;30159;49.316;8.558;2023-05-10T06:51:15;2.43;;;2.23;;
44456;SDS011;30159;49.316;8.558;2023-05-10T06:53:41;4.10;;;2.20;;
44456;SDS011;30159;49.316;8.558;2023-05-10T06:56:09;2.97;;;2.17;;
44456;SDS011;30159;49.316;8.558;2023-05-10T06:58:35;2.20;;;2.10;;
44456;SDS011;30159;49.316;8.558;2023-05-10T07:01:03;2.10;;;1.90;;
44456;SDS011;30159;49.316;8.558;2023-05-10T07:03:31;1.90;;;1.80;;
44456;SDS011;30159;49.316;8.558;2023-05-10T07:06:01;2.00;;;1.90;;
44456;SDS011;30159;49.316;8.558;2023-05-10T07:08:29;1.90;;;1.80;;
44456;SDS011;30159;49.316;8.558;2023-05-10T07:10:59;4.90;;;1.60;;
44456;SDS011;30159;49.316;8.558;2023-05-10T07:13:27;1.63;;;1.53;;
44456;SDS011;30159;49.316;8.558;2023-05-10T07:15:54;1.80;;;1.70;;
44456;SDS011;30159;49.316;8.558;2023-05-10T07:18:20;1.73;;;1.63;;
44456;SDS011;30159;49.316;8.558;2023-05-10T07:20:47;1.97;;;1.43;;
44456;SDS011;30159;49.316;8.558;2023-05-10T07:23:13;2.00;;;1.33;;
44456;SDS011;30159;49.316;8.558;2023-05-10T07:25:40;2.07;;;1.70;;
44456;SDS011;30159;49.316;8.558;2023-05-10T07:28:06;1.80;;;1.70;;
44456;SDS011;30159;49.316;8.558;2023-05-10T07:30:34;1.90;;;1.80;;
44456;SDS011;30159;49.316;8.558;2023-05-10T07:33:01;1.47;;;1.37;;
44456;SDS011;30159;49.316;8.558;2023-05-10T07:35:27;1.50;;;1.40;;
44456;SDS011;30159;49.316;8.558;2023-05-10T07:37:54;1.47;;;1.23;;
44456;SDS011;30159;49.316;8.558;2023-05-10T07:40:20;1.50;;;1.40;;
44456;SDS011;30159;49.316;8.558;2023-05-10T07:42:47;1.40;;;1.17;;
44456;SDS011;30159;49.316;8.558;2023-05-10T07:45:13;1.20;;;1.10;;
44456;SDS011;30159;49.316;8.558;2023-05-10T07:47:41;1.90;;;1.23;;
44456;SDS011;30159;49.316;8.558;2023-05-10T07:50:08;1.33;;;1.23;;
44456;SDS011;30159;49.316;8.558;2023-05-10T07:52:35;1.43;;;1.33;;
44456;SDS011;30159;49.316;8.558;2023-05-10T07:55:01;1.70;;;1.60;;
44456;SDS011;30159;49.316;8.558;2023-05-10T07:57:28;1.40;;;1.30;;
44456;SDS011;30159;49.316;8.558;2023-05-10T07:59:54;1.40;;;1.30;;
44456;SDS011;30159;49.316;8.558;2023-05-10T08:02:21;1.27;;;1.17;;
44456;SDS011;30159;49.316;8.558;2023-05-10T08:04:49;1.30;;;1.20;;
44456;SDS011;30159;49.316;8.558;2023-05-10T08:07:15;1.90;;;1.30;;
44456;SDS011;30159;49.316;8.558;2023-05-10T08:09:42;1.40;;;1.30;;
44456;SDS011;30159;49.316;8.558;2023-05-10T08:12:08;1.33;;;1.20;;
44456;SDS011;30159;49.316;8.558;2023-05-10T08:14:35;1.57;;;1.27;;
44456;SDS011;30159;49.316;8.558;2023-05-10T08:17:02;1.60;;;1.50;;
44456;SDS011;30159;49.316;8.558;2023-05-10T08:19:29;4.40;;;1.70;;
44456;SDS011;30159;49.316;8.558;2023-05-10T08:21:57;1.60;;;1.50;;
44456;SDS011;30159;49.316;8.558;2023-05-10T08:24:23;1.70;;;1.57;;
44456;SDS011;30159;49.316;8.558;2023-05-10T08:26:50;1.50;;;1.40;;
44456;SDS011;30159;49.316;8.558;2023-05-10T08:29:16;1.60;;;1.50;;
44456;SDS011;30159;49.316;8.558;2023-05-10T08:31:43;1.20;;;1.10;;
44456;SDS011;30159;49.316;8.558;2023-05-10T08:34:10;1.73;;;1.40;;
44456;SDS011;30159;49.316;8.558;2023-05-10T08:36:36;1.00;;;0.90;;
44456;SDS011;30159;49.316;8.558;2023-05-10T08:39:04;0.93;;;0.80;;
44456;SDS011;30159;49.316;8.558;2023-05-10T08:41:31;1.13;;;1.00;;
44456;SDS011;30159;49.316;8.558;2023-05-10T08:44:02;1.40;;;1.03;;
44456;SDS011;30159;49.316;8.558;2023-05-10T08:46:30;1.47;;;0.93;;
44456;SDS011;30159;49.316;8.558;2023-05-10T08:48:59;0.90;;;0.90;;
44456;SDS011;30159;49.316;8.558;2023-05-10T08:51:29;1.73;;;1.00;;
44456;SDS011;30159;49.316;8.558;2023-05-10T08:54:01;1.00;;;0.90;;
44456;SDS011;30159;49.316;8.558;2023-05-10T08:56:31;1.20;;;1.00;;
44456;SDS011;30159;49.316;8.558;2023-05-10T08:58:57;0.80;;;0.80;;
44456;SDS011;30159;49.316;8.558;2023-05-10T09:01:24;0.90;;;0.90;;
44456;SDS011;30159;49.316;8.558;2023-05-10T09:03:52;1.33;;;1.00;;
44456;SDS011;30159;49.316;8.558;2023-05-10T09:06:19;1.30;;;1.20;;
44456;SDS011;30159;49.316;8.558;2023-05-10T09:08:46;1.10;;;1.00;;
44456;SDS011;30159;49.316;8.558;2023-05-10T09:11:13;1.10;;;1.00;;
44456;SDS011;30159;49.316;8.558;2023-05-10T09:13:41;1.00;;;0.90;;
44456;SDS011;30159;49.316;8.558;2023-05-10T09:16:09;1.10;;;1.00;;
44456;SDS011;30159;49.316;8.558;2023-05-10T09:18:35;1.10;;;1.00;;
44456;SDS011;30159;49.316;8.558;2023-05-10T09:21:02;0.80;;;0.80;;
44456;SDS011;30159;49.316;8.558;2023-05-10T09:23:29;2.73;;;0.90;;
44456;SDS011;30159;49.316;8.558;2023-05-10T09:26:03;1.00;;;0.90;;
44456;SDS011;30159;49.316;8.558;2023-05-10T09:28:31;1.47;;;0.70;;
44456;SDS011;30159;49.316;8.558;2023-05-10T09:30:59;1.77;;;1.00;;
44456;SDS011;30159;49.316;8.558;2023-05-10T09:33:26;1.10;;;0.90;;
44456;SDS011;30159;49.316;8.558;2023-05-10T09:35:52;0.87;;;0.87;;
44456;SDS011;30159;49.316;8.558;2023-05-10T09:38:19;0.80;;;0.80;;
44456;SDS011;30159;49.316;8.558;2023-05-10T09:40:50;1.00;;;0.90;;
44456;SDS011;30159;49.316;8.558;2023-05-10T09:43:19;1.00;;;1.00;;
44456;SDS011;30159;49.316;8.558;2023-05-10T09:45:46;1.30;;;0.90;;
44456;SDS011;30159;49.316;8.558;2023-05-10T09:48:16;0.90;;;0.90;;
44456;SDS011;30159;49.316;8.558;2023-05-10T09:50:42;2.50;;;0.90;;
44456;SDS011;30159;49.316;8.558;2023-05-10T09:53:09;1.10;;;1.00;;
44456;SDS011;30159;49.316;8.558;2023-05-10T09:55:40;1.07;;;0.80;;
44456;SDS011;30159;49.316;8.558;2023-05-10T09:58:09;1.07;;;0.97;;
44456;SDS011;30159;49.316;8.558;2023-05-10T10:00:37;1.67;;;0.90;;
44456;SDS011;30159;49.316;8.558;2023-05-10T10:03:05;1.23;;;0.80;;
44456;SDS011;30159;49.316;8.558;2023-05-10T10:05:34;1.10;;;1.00;;
44456;SDS011;30159;49.316;8.558;2023-05-10T10:08:02;1.47;;;0.80;;
44456;SDS011;30159;49.316;8.558;2023-05-10T10:10:30;1.00;;;0.90;;
44456;SDS011;30159;49.316;8.558;2023-05-10T10:12:58;1.53;;;0.70;;
44456;SDS011;30159;49.316;8.558;2023-05-10T10:15:25;0.80;;;0.80;;
44456;SDS011;30159;49.316;8.558;2023-05-10T10:17:52;1.27;;;0.90;;
44456;SDS011;30159;49.316;8.558;2023-05-10T10:20:20;0.90;;;0.80;;
44456;SDS011;30159;49.316;8.558;2023-05-10T10:22:49;0.90;;;0.73;;
44456;SDS011;30159;49.316;8.558;2023-05-10T10:25:16;0.93;;;0.83;;
44456;SDS011;30159;49.316;8.558;2023-05-10T10:27:47;0.80;;;0.60;;
44456;SDS011;30159;49.316;8.558;2023-05-10T10:30:24;0.77;;;0.73;;
44456;SDS011;30159;49.316;8.558;2023-05-10T10:32:59;0.70;;;0.63;;
44456;SDS011;30159;49.316;8.558;2023-05-10T10:35:35;0.70;;;0.60;;
44456;SDS011;30159;49.316;8.558;2023-05-10T10:38:03;0.90;;;0.60;;
44456;SDS011;30159;49.316;8.558;2023-05-10T10:40:30;0.70;;;0.70;;
44456;SDS011;30159;49.316;8.558;2023-05-10T10:43:20;0.97;;;0.80;;
44456;SDS011;30159;49.316;8.558;2023-05-10T10:45:50;0.90;;;0.70;;
44456;SDS011;30159;49.316;8.558;2023-05-10T10:48:36;0.67;;;0.67;;
44456;SDS011;30159;49.316;8.558;2023-05-10T10:51:03;0.70;;;0.70;;
44456;SDS011;30159;49.316;8.558;2023-05-10T10:53:31;0.60;;;0.53;;
44456;SDS011;30159;49.316;8.558;2023-05-10T10:56:07;0.80;;;0.60;;
44456;SDS011;30159;49.316;8.558;2023-05-10T10:58:36;1.70;;;0.67;;
44456;SDS011;30159;49.316;8.558;2023-05-10T11:01:13;0.70;;;0.67;;
44456;SDS011;30159;49.316;8.558;2023-05-10T11:03:41;0.70;;;0.70;;
44456;SDS011;30159;49.316;8.558;2023-05-10T11:06:41;0.90;;;0.70;;
44456;SDS011;30159;49.316;8.558;2023-05-10T11:09:09;0.87;;;0.60;;
44456;SDS011;30159;49.316;8.558;2023-05-10T11:11:48;0.93;;;0.70;;
44456;SDS011;30159;49.316;8.558;2023-05-10T11:14:15;0.87;;;0.80;;
44456;SDS011;30159;49.316;8.558;2023-05-10T11:16:46;1.10;;;1.00;;
44456;SDS011;30159;49.316;8.558;2023-05-10T11:19:13;0.83;;;0.73;;
44456;SDS011;30159;49.316;8.558;2023-05-10T11:21:45;1.90;;;1.07;;
44456;SDS011;30159;49.316;8.558;2023-05-10T11:24:14;0.87;;;0.80;;
44456;SDS011;30159;49.316;8.558;2023-05-10T11:26:42;0.70;;;0.70;;
44456;SDS011;30159;49.316;8.558;2023-05-10T11:29:09;1.27;;;0.70;;
44456;SDS011;30159;49.316;8.558;2023-05-10T11:31:41;1.83;;;0.80;;
44456;SDS011;30159;49.316;8.558;2023-05-10T11:34:08;0.87;;;0.70;;
44456;SDS011;30159;49.316;8.558;2023-05-10T11:36:36;5.23;;;0.83;;
44456;SDS011;30159;49.316;8.558;2023-05-10T11:39:03;0.70;;;0.70;;
44456;SDS011;30159;49.316;8.558;2023-05-10T11:41:32;0.97;;;0.70;;
44456;SDS011;30159;49.316;8.558;2023-05-10T11:43:58;0.93;;;0.87;;
44456;SDS011;30159;49.316;8.558;2023-05-10T11:46:25;1.63;;;0.90;;
44456;SDS011;30159;49.316;8.558;2023-05-10T11:48:53;6.47;;;0.90;;
44456;SDS011;30159;49.316;8.558;2023-05-10T11:51:23;1.10;;;1.00;;
44456;SDS011;30159;49.316;8.558;2023-05-10T11:53:52;1.80;;;0.87;;
44456;SDS011;30159;49.316;8.558;2023-05-10T11:56:20;2.00;;;0.83;;
44456;SDS011;30159;49.316;8.558;2023-05-10T11:58:52;1.00;;;0.90;;
44456;SDS011;30159;49.316;8.558;2023-05-10T12:01:20;2.93;;;0.90;;
44456;SDS011;30159;49.316;8.558;2023-05-10T12:03:47;2.40;;;0.80;;
44456;SDS011;30159;49.316;8.558;2023-05-10T12:06:15;0.90;;;0.77;;
44456;SDS011;30159;49.316;8.558;2023-05-10T12:08:44;0.90;;;0.83;;
44456;SDS011;30159;49.316;8.558;2023-05-10T12:11:12;1.73;;;0.80;;
44456;SDS011;30159;49.316;8.558;2023-05-10T12:13:40;6.83;;;0.97;;
44456;SDS011;30159;49.316;8.558;2023-05-10T12:16:17;1.27;;;0.80;;
44456;SDS011;30159;49.316;8.558;2023-05-10T12:18:45;0.83;;;0.80;;
44456;SDS011;30159;49.316;8.558;2023-05-10T12:21:14;0.93;;;0.83;;
44456;SDS011;30159;49.316;8.558;2023-05-10T12:23:41;2.10;;;0.73;;
44456;SDS011;30159;49.316;8.558;2023-05-10T12:26:08;2.20;;;0.90;;
44456;SDS011;30159;49.316;8.558;2023-05-10T12:28:35;1.53;;;0.90;;
44456;SDS011;30159;49.316;8.558;2023-05-10T12:31:02;2.10;;;0.80;;
44456;SDS011;30159;49.316;8.558;2023-05-10T12:33:36;0.70;;;0.70;;
44456;SDS011;30159;49.316;8.558;2023-05-10T12:36:06;1.27;;;0.77;;
44456;SDS011;30159;49.316;8.558;2023-05-10T12:38:33;0.80;;;0.70;;
44456;SDS011;30159;49.316;8.558;2023-05-10T12:41:03;1.87;;;0.80;;
44456;SDS011;30159;49.316;8.558;2023-05-10T12:43:31;0.70;;;0.70;;
44456;SDS011;30159;49.316;8.558;2023-05-10T12:45:58;2.40;;;0.70;;
44456;SDS011;30159;49.316;8.558;2023-05-10T12:48:30;0.80;;;0.70;;
44456;SDS011;30159;49.316;8.558;2023-05-10T12:51:00;0.77;;;0.60;;
44456;SDS011;30159;49.316;8.558;2023-05-10T12:53:27;1.20;;;0.80;;
44456;SDS011;30159;49.316;8.558;2023-05-10T12:55:53;0.93;;;0.80;;
44456;SDS011;30159;49.316;8.558;2023-05-10T12:58:20;2.70;;;0.80;;
44456;SDS011;30159;49.316;8.558;2023-05-10T13:00:46;1.50;;;0.80;;
44456;SDS011;30159;49.316;8.558;2023-05-10T13:03:13;0.90;;;0.77;;
44456;SDS011;30159;49.316;8.558;2023-05-10T13:05:40;1.10;;;1.00;;
44456;SDS011;30159;49.316;8.558;2023-05-10T13:08:08;1.00;;;0.80;;
44456;SDS011;30159;49.316;8.558;2023-05-10T13:10:35;1.00;;;0.90;;
44456;SDS011;30159;49.316;8.558;2023-05-10T13:13:01;0.90;;;0.90;;
44456;SDS011;30159;49.316;8.558;2023-05-10T13:15:28;3.57;;;0.80;;
44456;SDS011;30159;49.316;8.558;2023-05-10T13:17:54;0.90;;;0.80;;
44456;SDS011;30159;49.316;8.558;2023-05-10T13:20:21;0.70;;;0.60;;
44456;SDS011;30159;49.316;8.558;2023-05-10T13:22:48;0.83;;;0.70;;
44456;SDS011;30159;49.316;8.558;2023-05-10T13:25:17;0.77;;;0.70;;
44456;SDS011;30159;49.316;8.558;2023-05-10T13:27:44;1.30;;;0.80;;
44456;SDS011;30159;49.316;8.558;2023-05-10T13:30:10;0.70;;;0.70;;
44456;SDS011;30159;49.316;8.558;2023-05-10T13:32:37;0.80;;;0.70;;
44456;SDS011;30159;49.316;8.558;2023-05-10T13:35:05;0.70;;;0.70;;
44456;SDS011;30159;49.316;8.558;2023-05-10T13:37:32;0.60;;;0.60;;
44456;SDS011;30159;49.316;8.558;2023-05-10T13:40:00;0.80;;;0.70;;
44456;SDS011;30159;49.316;8.558;2023-05-10T13:42:30;1.53;;;0.70;;
44456;SDS011;30159;49.316;8.558;2023-05-10T13:44:58;0.80;;;0.80;;
44456;SDS011;30159;49.316;8.558;2023-05-10T13:47:25;0.80;;;0.70;;
44456;SDS011;30159;49.316;8.558;2023-05-10T13:49:52;1.90;;;0.90;;
44456;SDS011;30159;49.316;8.558;2023-05-10T13:52:18;0.90;;;0.67;;
44456;SDS011;30159;49.316;8.558;2023-05-10T13:54:45;1.10;;;0.80;;
44456;SDS011;30159;49.316;8.558;2023-05-10T13:57:11;0.70;;;0.70;;
44456;SDS011;30159;49.316;8.558;2023-05-10T13:59:40;0.60;;;0.60;;
44456;SDS011;30159;49.316;8.558;2023-05-10T14:02:06;2.23;;;0.80;;
44456;SDS011;30159;49.316;8.558;2023-05-10T14:04:33;0.60;;;0.53;;
44456;SDS011;30159;49.316;8.558;2023-05-10T14:07:00;0.80;;;0.70;;
44456;SDS011;30159;49.316;8.558;2023-05-10T14:09:27;2.17;;;0.83;;
44456;SDS011;30159;49.316;8.558;2023-05-10T14:11:53;0.60;;;0.60;;
44456;SDS011;30159;49.316;8.558;2023-05-10T14:14:20;2.03;;;0.70;;
44456;SDS011;30159;49.316;8.558;2023-05-10T14:16:48;0.60;;;0.60;;
44456;SDS011;30159;49.316;8.558;2023-05-10T14:19:15;0.97;;;0.63;;
44456;SDS011;30159;49.316;8.558;2023-05-10T14:21:42;0.80;;;0.80;;
44456;SDS011;30159;49.316;8.558;2023-05-10T14:24:09;0.70;;;0.60;;
44456;SDS011;30159;49.316;8.558;2023-05-10T14:26:35;0.70;;;0.60;;
44456;SDS011;30159;49.316;8.558;2023-05-10T14:29:02;0.80;;;0.70;;
44456;SDS011;30159;49.316;8.558;2023-05-10T14:31:29;0.93;;;0.67;;
44456;SDS011;30159;49.316;8.558;2023-05-10T14:33:57;1.17;;;0.80;;
44456;SDS011;30159;49.316;8.558;2023-05-10T14:36:24;0.70;;;0.63;;
44456;SDS011;30159;49.316;8.558;2023-05-10T14:38:50;0.70;;;0.60;;
44456;SDS011;30159;49.316;8.558;2023-05-10T14:41:17;0.80;;;0.60;;
44456;SDS011;30159;49.316;8.558;2023-05-10T14:43:43;0.70;;;0.60;;
44456;SDS011;30159;49.316;8.558;2023-05-10T14:46:10;0.80;;;0.77;;
44456;SDS011;30159;49.316;8.558;2023-05-10T14:48:37;0.60;;;0.60;;
44456;SDS011;30159;49.316;8.558;2023-05-10T14:51:05;0.70;;;0.70;;
44456;SDS011;30159;49.316;8.558;2023-05-10T14:53:31;0.90;;;0.70;;
44456;SDS011;30159;49.316;8.558;2023-05-10T14:55:58;0.70;;;0.60;;